sensor_id;sensor_type;location;lat;lon;timestamp;temperature;humidity
55812;DHT22;41742;52.048;6.092;2022-10-14T00:00:17;11.20;99.90
55812;DHT22;41742;52.048;6.092;2022-10-14T00:02:43;11.20;99.90
55812;DHT22;41742;52.048;6.092;2022-10-14T00:05:09;11.20;99.90
55812;DHT22;41742;52.048;6.092;2022-10-14T00:07:38;11.20;99.90
55812;DHT22;41742;52.048;6.092;2022-10-14T00:10:04;11.10;99.90
55812;DHT22;41742;52.048;6.092;2022-10-14T00:12:32;11.10;99.90
55812;DHT22;41742;52.048;6.092;2022-10-14T00:14:58;11.10;99.90
55812;DHT22;41742;52.048;6.092;2022-10-14T00:17:24;11.20;99.90
55812;DHT22;41742;52.048;6.092;2022-10-14T00:19:51;11.20;99.90
55812;DHT22;41742;52.048;6.092;2022-10-14T00:22:16;11.20;99.90
55812;DHT22;41742;52.048;6.092;2022-10-14T00:24:42;11.20;99.90
55812;DHT22;41742;52.048;6.092;2022-10-14T00:27:08;11.10;99.90
55812;DHT22;41742;52.048;6.092;2022-10-14T00:29:34;11.00;99.90
55812;DHT22;41742;52.048;6.092;2022-10-14T00:31:59;11.00;99.90
55812;DHT22;41742;52.048;6.092;2022-10-14T00:34:25;10.90;99.90
55812;DHT22;41742;52.048;6.092;2022-10-14T00:36:53;10.90;99.90
55812;DHT22;41742;52.048;6.092;2022-10-14T00:39:19;10.90;99.90
55812;DHT22;41742;52.048;6.092;2022-10-14T00:41:45;11.00;99.90
55812;DHT22;41742;52.048;6.092;2022-10-14T00:46:48;10.90;99.90
55812;DHT22;41742;52.048;6.092;2022-10-14T00:49:43;10.90;99.90
55812;DHT22;41742;52.048;6.092;2022-10-14T00:52:20;10.70;99.90
55812;DHT22;41742;52.048;6.092;2022-10-14T00:54:47;10.80;99.90
55812;DHT22;41742;52.048;6.092;2022-10-14T00:57:14;10.90;99.90
55812;DHT22;41742;52.048;6.092;2022-10-14T00:59:40;10.80;99.90
55812;DHT22;41742;52.048;6.092;2022-10-14T01:02:05;10.90;99.90
55812;DHT22;41742;52.048;6.092;2022-10-14T01:04:32;10.90;99.90
55812;DHT22;41742;52.048;6.092;2022-10-14T01:07:16;10.90;99.90
55812;DHT22;41742;52.048;6.092;2022-10-14T01:09:53;10.90;99.90
55812;DHT22;41742;52.048;6.092;2022-10-14T01:15:22;10.80;99.90
55812;DHT22;41742;52.048;6.092;2022-10-14T01:18:28;10.70;99.90
55812;DHT22;41742;52.048;6.092;2022-10-14T01:21:17;10.80;99.90
55812;DHT22;41742;52.048;6.092;2022-10-14T01:26:42;10.80;99.90
55812;DHT22;41742;52.048;6.092;2022-10-14T01:32:13;10.80;99.90
55812;DHT22;41742;52.048;6.092;2022-10-14T01:34:46;10.80;99.90
55812;DHT22;41742;52.048;6.092;2022-10-14T01:37:16;10.80;99.90
55812;DHT22;41742;52.048;6.092;2022-10-14T01:39:50;10.80;99.90
55812;DHT22;41742;52.048;6.092;2022-10-14T01:42:22;10.70;99.90
55812;DHT22;41742;52.048;6.092;2022-10-14T01:47:38;10.70;99.90
55812;DHT22;41742;52.048;6.092;2022-10-14T01:50:13;10.70;99.90
55812;DHT22;41742;52.048;6.092;2022-10-14T01:52:44;10.70;99.90
55812;DHT22;41742;52.048;6.092;2022-10-14T01:55:17;10.70;99.90
55812;DHT22;41742;52.048;6.092;2022-10-14T01:57:44;10.60;99.90
55812;DHT22;41742;52.048;6.092;2022-10-14T02:00:13;10.60;99.90
55812;DHT22;41742;52.048;6.092;2022-10-14T02:02:42;10.60;99.90
55812;DHT22;41742;52.048;6.092;2022-10-14T02:05:16;10.60;99.90
55812;DHT22;41742;52.048;6.092;2022-10-14T02:07:45;10.60;99.90
55812;DHT22;41742;52.048;6.092;2022-10-14T02:10:30;10.60;99.90
55812;DHT22;41742;52.048;6.092;2022-10-14T02:15:43;10.70;99.90
55812;DHT22;41742;52.048;6.092;2022-10-14T02:18:34;10.70;99.90
55812;DHT22;41742;52.048;6.092;2022-10-14T02:21:25;10.70;99.90
55812;DHT22;41742;52.048;6.092;2022-10-14T02:24:19;10.70;99.90
55812;DHT22;41742;52.048;6.092;2022-10-14T02:26:47;10.70;99.90
55812;DHT22;41742;52.048;6.092;2022-10-14T02:29:16;10.60;99.90
55812;DHT22;41742;52.048;6.092;2022-10-14T02:31:42;10.70;99.90
55812;DHT22;41742;52.048;6.092;2022-10-14T02:34:12;10.50;99.90
55812;DHT22;41742;52.048;6.092;2022-10-14T02:36:41;10.60;99.90
55812;DHT22;41742;52.048;6.092;2022-10-14T02:39:11;10.60;99.90
55812;DHT22;41742;52.048;6.092;2022-10-14T02:41:38;10.60;99.90
55812;DHT22;41742;52.048;6.092;2022-10-14T02:44:06;10.70;99.90
55812;DHT22;41742;52.048;6.092;2022-10-14T02:46:33;10.70;99.90
55812;DHT22;41742;52.048;6.092;2022-10-14T02:48:59;10.70;99.90
55812;DHT22;41742;52.048;6.092;2022-10-14T02:51:26;10.70;99.90
55812;DHT22;41742;52.048;6.092;2022-10-14T02:53:51;10.70;99.90
55812;DHT22;41742;52.048;6.092;2022-10-14T02:56:17;10.70;99.90
55812;DHT22;41742;52.048;6.092;2022-10-14T02:58:43;10.70;99.90
55812;DHT22;41742;52.048;6.092;2022-10-14T03:01:09;10.70;99.90
55812;DHT22;41742;52.048;6.092;2022-10-14T03:03:35;10.70;99.90
55812;DHT22;41742;52.048;6.092;2022-10-14T03:06:01;10.70;99.90
55812;DHT22;41742;52.048;6.092;2022-10-14T03:08:28;10.70;99.90
55812;DHT22;41742;52.048;6.092;2022-10-14T03:10:55;10.70;99.90
55812;DHT22;41742;52.048;6.092;2022-10-14T03:13:21;10.70;99.90
55812;DHT22;41742;52.048;6.092;2022-10-14T03:15:48;10.70;99.90
55812;DHT22;41742;52.048;6.092;2022-10-14T03:18:15;10.70;99.90
55812;DHT22;41742;52.048;6.092;2022-10-14T03:20:44;10.70;99.90
55812;DHT22;41742;52.048;6.092;2022-10-14T03:23:12;10.60;99.90
55812;DHT22;41742;52.048;6.092;2022-10-14T03:25:39;10.60;99.90
55812;DHT22;41742;52.048;6.092;2022-10-14T03:28:12;10.60;99.90
55812;DHT22;41742;52.048;6.092;2022-10-14T03:30:48;10.60;99.90
55812;DHT22;41742;52.048;6.092;2022-10-14T03:33:21;10.50;99.90
55812;DHT22;41742;52.048;6.092;2022-10-14T03:35:51;10.60;99.90
55812;DHT22;41742;52.048;6.092;2022-10-14T03:38:22;10.60;99.90
55812;DHT22;41742;52.048;6.092;2022-10-14T03:40:48;10.60;99.90
55812;DHT22;41742;52.048;6.092;2022-10-14T03:43:15;10.60;99.90
55812;DHT22;41742;52.048;6.092;2022-10-14T03:45:48;10.60;99.90
55812;DHT22;41742;52.048;6.092;2022-10-14T03:48:17;10.60;99.90
55812;DHT22;41742;52.048;6.092;2022-10-14T03:50:43;10.50;99.90
55812;DHT22;41742;52.048;6.092;2022-10-14T03:53:09;10.50;99.90
55812;DHT22;41742;52.048;6.092;2022-10-14T03:55:35;10.60;99.90
55812;DHT22;41742;52.048;6.092;2022-10-14T03:58:03;10.60;99.90
55812;DHT22;41742;52.048;6.092;2022-10-14T04:00:30;10.60;99.90
55812;DHT22;41742;52.048;6.092;2022-10-14T04:03:11;10.60;99.90
55812;DHT22;41742;52.048;6.092;2022-10-14T04:05:38;10.60;99.90
55812;DHT22;41742;52.048;6.092;2022-10-14T04:08:10;10.60;99.90
55812;DHT22;41742;52.048;6.092;2022-10-14T04:10:39;10.60;99.90
55812;DHT22;41742;52.048;6.092;2022-10-14T04:13:07;10.60;99.90
55812;DHT22;41742;52.048;6.092;2022-10-14T04:15:37;10.70;99.90
55812;DHT22;41742;52.048;6.092;2022-10-14T04:18:17;10.60;99.90
55812;DHT22;41742;52.048;6.092;2022-10-14T04:20:43;10.70;99.90
55812;DHT22;41742;52.048;6.092;2022-10-14T04:23:10;10.70;99.90
55812;DHT22;41742;52.048;6.092;2022-10-14T04:25:38;10.70;99.90
55812;DHT22;41742;52.048;6.092;2022-10-14T04:28:05;10.70;99.90
55812;DHT22;41742;52.048;6.092;2022-10-14T04:30:44;10.70;99.90
55812;DHT22;41742;52.048;6.092;2022-10-14T04:33:16;10.70;99.90
55812;DHT22;41742;52.048;6.092;2022-10-14T04:35:41;10.60;99.90
55812;DHT22;41742;52.048;6.092;2022-10-14T04:38:14;10.70;99.90
55812;DHT22;41742;52.048;6.092;2022-10-14T04:40:49;10.70;99.90
55812;DHT22;41742;52.048;6.092;2022-10-14T04:43:15;10.70;99.90
55812;DHT22;41742;52.048;6.092;2022-10-14T04:45:41;10.70;99.90
55812;DHT22;41742;52.048;6.092;2022-10-14T04:48:08;10.70;99.90
55812;DHT22;41742;52.048;6.092;2022-10-14T04:50:39;10.70;99.90
55812;DHT22;41742;52.048;6.092;2022-10-14T04:53:31;10.70;99.90
55812;DHT22;41742;52.048;6.092;2022-10-14T04:56:11;10.80;99.90
55812;DHT22;41742;52.048;6.092;2022-10-14T04:58:47;10.80;99.90
55812;DHT22;41742;52.048;6.092;2022-10-14T05:01:12;10.80;99.90
55812;DHT22;41742;52.048;6.092;2022-10-14T05:03:40;10.80;99.90
55812;DHT22;41742;52.048;6.092;2022-10-14T05:06:05;10.80;99.90
55812;DHT22;41742;52.048;6.092;2022-10-14T05:08:32;10.80;99.90
55812;DHT22;41742;52.048;6.092;2022-10-14T05:10:59;10.80;99.90
55812;DHT22;41742;52.048;6.092;2022-10-14T05:13:35;10.80;99.90
55812;DHT22;41742;52.048;6.092;2022-10-14T05:16:05;10.80;99.90
55812;DHT22;41742;52.048;6.092;2022-10-14T05:18:32;10.80;99.90
55812;DHT22;41742;52.048;6.092;2022-10-14T05:21:01;10.90;99.90
55812;DHT22;41742;52.048;6.092;2022-10-14T05:23:45;10.90;99.90
55812;DHT22;41742;52.048;6.092;2022-10-14T05:26:11;10.90;99.90
55812;DHT22;41742;52.048;6.092;2022-10-14T05:28:39;10.90;99.90
55812;DHT22;41742;52.048;6.092;2022-10-14T05:31:05;10.90;99.90
55812;DHT22;41742;52.048;6.092;2022-10-14T05:33:35;10.90;99.90
55812;DHT22;41742;52.048;6.092;2022-10-14T05:36:01;10.90;99.90
55812;DHT22;41742;52.048;6.092;2022-10-14T05:38:31;10.90;99.90
55812;DHT22;41742;52.048;6.092;2022-10-14T05:40:58;10.90;99.90
55812;DHT22;41742;52.048;6.092;2022-10-14T05:43:24;11.00;99.90
55812;DHT22;41742;52.048;6.092;2022-10-14T05:45:50;11.00;99.90
55812;DHT22;41742;52.048;6.092;2022-10-14T05:48:16;11.00;99.90
55812;DHT22;41742;52.048;6.092;2022-10-14T05:50:42;11.00;99.90
55812;DHT22;41742;52.048;6.092;2022-10-14T05:53:11;11.00;99.90
55812;DHT22;41742;52.048;6.092;2022-10-14T05:55:41;11.00;99.90
55812;DHT22;41742;52.048;6.092;2022-10-14T05:58:07;11.00;99.90
55812;DHT22;41742;52.048;6.092;2022-10-14T06:00:37;11.10;99.90
55812;DHT22;41742;52.048;6.092;2022-10-14T06:03:10;11.10;99.90
55812;DHT22;41742;52.048;6.092;2022-10-14T06:05:38;11.10;99.90
55812;DHT22;41742;52.048;6.092;2022-10-14T06:08:04;11.10;99.90
55812;DHT22;41742;52.048;6.092;2022-10-14T06:10:33;11.10;99.90
55812;DHT22;41742;52.048;6.092;2022-10-14T06:12:59;11.10;99.90
55812;DHT22;41742;52.048;6.092;2022-10-14T06:15:25;11.20;99.90
55812;DHT22;41742;52.048;6.092;2022-10-14T06:17:53;11.20;99.90
55812;DHT22;41742;52.048;6.092;2022-10-14T06:20:19;11.20;99.90
55812;DHT22;41742;52.048;6.092;2022-10-14T06:22:45;11.20;99.90
55812;DHT22;41742;52.048;6.092;2022-10-14T06:25:10;11.20;99.90
55812;DHT22;41742;52.048;6.092;2022-10-14T06:27:36;11.20;99.90
55812;DHT22;41742;52.048;6.092;2022-10-14T06:30:03;11.30;99.90
55812;DHT22;41742;52.048;6.092;2022-10-14T06:32:28;11.30;99.90
55812;DHT22;41742;52.048;6.092;2022-10-14T06:34:54;11.30;99.90
55812;DHT22;41742;52.048;6.092;2022-10-14T06:37:19;11.30;99.90
55812;DHT22;41742;52.048;6.092;2022-10-14T06:39:45;11.30;99.90
55812;DHT22;41742;52.048;6.092;2022-10-14T06:42:11;11.40;99.90
55812;DHT22;41742;52.048;6.092;2022-10-14T06:44:38;11.40;99.90
55812;DHT22;41742;52.048;6.092;2022-10-14T06:47:05;11.40;99.90
55812;DHT22;41742;52.048;6.092;2022-10-14T06:49:31;11.40;99.90
55812;DHT22;41742;52.048;6.092;2022-10-14T06:51:56;11.40;99.90
55812;DHT22;41742;52.048;6.092;2022-10-14T06:54:22;11.40;99.90
55812;DHT22;41742;52.048;6.092;2022-10-14T06:56:47;11.50;99.90
55812;DHT22;41742;52.048;6.092;2022-10-14T06:59:13;11.50;99.90
55812;DHT22;41742;52.048;6.092;2022-10-14T07:01:39;11.50;99.90
55812;DHT22;41742;52.048;6.092;2022-10-14T07:04:05;11.60;99.90
55812;DHT22;41742;52.048;6.092;2022-10-14T07:06:31;11.60;99.90
55812;DHT22;41742;52.048;6.092;2022-10-14T07:08:56;11.60;99.90
55812;DHT22;41742;52.048;6.092;2022-10-14T07:11:22;11.70;99.90
55812;DHT22;41742;52.048;6.092;2022-10-14T07:13:48;11.70;99.90
55812;DHT22;41742;52.048;6.092;2022-10-14T07:16:13;11.70;99.90
55812;DHT22;41742;52.048;6.092;2022-10-14T07:18:39;11.70;99.90
55812;DHT22;41742;52.048;6.092;2022-10-14T07:21:05;11.70;99.90
55812;DHT22;41742;52.048;6.092;2022-10-14T07:23:31;11.70;99.90
55812;DHT22;41742;52.048;6.092;2022-10-14T07:25:58;11.80;99.90
55812;DHT22;41742;52.048;6.092;2022-10-14T07:28:24;11.80;99.90
55812;DHT22;41742;52.048;6.092;2022-10-14T07:31:02;11.90;99.90
55812;DHT22;41742;52.048;6.092;2022-10-14T07:33:29;11.90;99.90
55812;DHT22;41742;52.048;6.092;2022-10-14T07:35:55;11.90;99.90
55812;DHT22;41742;52.048;6.092;2022-10-14T07:38:20;12.00;99.90
55812;DHT22;41742;52.048;6.092;2022-10-14T07:41:02;12.00;99.90
55812;DHT22;41742;52.048;6.092;2022-10-14T07:43:28;12.10;99.90
55812;DHT22;41742;52.048;6.092;2022-10-14T07:45:54;12.10;99.90
55812;DHT22;41742;52.048;6.092;2022-10-14T07:48:30;12.10;99.90
55812;DHT22;41742;52.048;6.092;2022-10-14T07:50:56;12.20;99.90
55812;DHT22;41742;52.048;6.092;2022-10-14T07:53:22;12.20;99.90
55812;DHT22;41742;52.048;6.092;2022-10-14T07:55:48;12.20;99.90
55812;DHT22;41742;52.048;6.092;2022-10-14T07:58:19;12.20;99.90
55812;DHT22;41742;52.048;6.092;2022-10-14T08:00:45;12.30;99.90
55812;DHT22;41742;52.048;6.092;2022-10-14T08:03:10;12.30;99.90
55812;DHT22;41742;52.048;6.092;2022-10-14T08:05:36;12.40;99.90
55812;DHT22;41742;52.048;6.092;2022-10-14T08:08:02;12.40;99.90
55812;DHT22;41742;52.048;6.092;2022-10-14T08:10:28;12.40;99.90
55812;DHT22;41742;52.048;6.092;2022-10-14T08:12:53;12.50;99.90
55812;DHT22;41742;52.048;6.092;2022-10-14T08:15:19;12.50;99.90
55812;DHT22;41742;52.048;6.092;2022-10-14T08:17:44;12.50;99.90
55812;DHT22;41742;52.048;6.092;2022-10-14T08:20:10;12.50;99.90
55812;DHT22;41742;52.048;6.092;2022-10-14T08:22:36;12.60;99.90
55812;DHT22;41742;52.048;6.092;2022-10-14T08:25:02;12.60;99.90
55812;DHT22;41742;52.048;6.092;2022-10-14T08:27:28;12.60;99.90
55812;DHT22;41742;52.048;6.092;2022-10-14T08:29:53;12.60;99.90
55812;DHT22;41742;52.048;6.092;2022-10-14T08:32:19;12.60;99.90
55812;DHT22;41742;52.048;6.092;2022-10-14T08:34:44;12.70;99.90
55812;DHT22;41742;52.048;6.092;2022-10-14T08:37:10;12.70;99.90
55812;DHT22;41742;52.048;6.092;2022-10-14T08:39:38;12.70;99.90
55812;DHT22;41742;52.048;6.092;2022-10-14T08:45:18;12.80;99.90
55812;DHT22;41742;52.048;6.092;2022-10-14T08:47:46;12.80;99.90
55812;DHT22;41742;52.048;6.092;2022-10-14T08:52:47;12.90;99.90
55812;DHT22;41742;52.048;6.092;2022-10-14T08:55:22;12.90;99.90
55812;DHT22;41742;52.048;6.092;2022-10-14T08:57:56;12.90;99.90
55812;DHT22;41742;52.048;6.092;2022-10-14T09:00:23;12.90;99.90
55812;DHT22;41742;52.048;6.092;2022-10-14T09:02:50;12.90;99.90
55812;DHT22;41742;52.048;6.092;2022-10-14T09:05:19;12.90;99.90
55812;DHT22;41742;52.048;6.092;2022-10-14T09:07:46;12.90;99.90
55812;DHT22;41742;52.048;6.092;2022-10-14T09:10:30;13.00;99.90
55812;DHT22;41742;52.048;6.092;2022-10-14T09:13:01;13.00;99.90
55812;DHT22;41742;52.048;6.092;2022-10-14T09:15:35;13.00;99.90
55812;DHT22;41742;52.048;6.092;2022-10-14T09:18:27;13.00;99.90
55812;DHT22;41742;52.048;6.092;2022-10-14T09:20:54;13.00;99.90
55812;DHT22;41742;52.048;6.092;2022-10-14T09:23:25;13.00;99.90
55812;DHT22;41742;52.048;6.092;2022-10-14T09:25:55;13.10;99.90
55812;DHT22;41742;52.048;6.092;2022-10-14T09:28:30;13.10;99.90
55812;DHT22;41742;52.048;6.092;2022-10-14T09:30:58;13.10;99.90
55812;DHT22;41742;52.048;6.092;2022-10-14T09:33:26;13.10;99.90
55812;DHT22;41742;52.048;6.092;2022-10-14T09:35:52;13.10;99.90
55812;DHT22;41742;52.048;6.092;2022-10-14T09:38:18;13.10;99.90
55812;DHT22;41742;52.048;6.092;2022-10-14T09:40:46;13.20;99.90
55812;DHT22;41742;52.048;6.092;2022-10-14T09:43:19;13.20;99.90
55812;DHT22;41742;52.048;6.092;2022-10-14T09:45:51;13.20;99.90
55812;DHT22;41742;52.048;6.092;2022-10-14T09:50:57;13.20;99.90
55812;DHT22;41742;52.048;6.092;2022-10-14T09:53:29;13.20;99.90
55812;DHT22;41742;52.048;6.092;2022-10-14T09:56:06;13.30;99.90
55812;DHT22;41742;52.048;6.092;2022-10-14T09:58:41;13.30;99.90
55812;DHT22;41742;52.048;6.092;2022-10-14T10:01:17;13.30;99.90
55812;DHT22;41742;52.048;6.092;2022-10-14T10:03:44;13.30;99.90
55812;DHT22;41742;52.048;6.092;2022-10-14T10:06:12;13.30;99.90
55812;DHT22;41742;52.048;6.092;2022-10-14T10:11:36;13.40;99.90
55812;DHT22;41742;52.048;6.092;2022-10-14T10:14:22;13.40;99.90
55812;DHT22;41742;52.048;6.092;2022-10-14T10:16:50;13.40;99.90
55812;DHT22;41742;52.048;6.092;2022-10-14T10:19:31;13.40;99.90
55812;DHT22;41742;52.048;6.092;2022-10-14T10:27:37;13.50;99.90
55812;DHT22;41742;52.048;6.092;2022-10-14T10:38:23;13.60;99.90
55812;DHT22;41742;52.048;6.092;2022-10-14T10:41:10;13.60;99.90
55812;DHT22;41742;52.048;6.092;2022-10-14T10:44:01;13.70;99.90
55812;DHT22;41742;52.048;6.092;2022-10-14T10:46:57;13.70;99.90
55812;DHT22;41742;52.048;6.092;2022-10-14T10:49:42;13.80;99.90
55812;DHT22;41742;52.048;6.092;2022-10-14T10:54:56;13.90;99.90
55812;DHT22;41742;52.048;6.092;2022-10-14T10:58:00;13.90;99.90
55812;DHT22;41742;52.048;6.092;2022-10-14T11:00:27;13.90;99.90
55812;DHT22;41742;52.048;6.092;2022-10-14T11:02:57;13.90;99.90
55812;DHT22;41742;52.048;6.092;2022-10-14T11:05:41;13.90;99.90
55812;DHT22;41742;52.048;6.092;2022-10-14T11:11:38;13.90;99.90
55812;DHT22;41742;52.048;6.092;2022-10-14T11:20:13;14.00;99.90
55812;DHT22;41742;52.048;6.092;2022-10-14T11:25:36;14.10;99.90
55812;DHT22;41742;52.048;6.092;2022-10-14T11:37:53;14.20;99.90
55812;DHT22;41742;52.048;6.092;2022-10-14T11:40:00;14.20;99.90
55812;DHT22;41742;52.048;6.092;2022-10-14T11:42:43;14.10;99.90
55812;DHT22;41742;52.048;6.092;2022-10-14T11:47:43;14.10;99.90
55812;DHT22;41742;52.048;6.092;2022-10-14T11:56:56;14.10;99.90
55812;DHT22;41742;52.048;6.092;2022-10-14T11:58:58;14.10;99.90
55812;DHT22;41742;52.048;6.092;2022-10-14T12:01:27;14.10;99.90
55812;DHT22;41742;52.048;6.092;2022-10-14T12:04:05;14.10;99.90
55812;DHT22;41742;52.048;6.092;2022-10-14T12:06:40;14.10;99.90
55812;DHT22;41742;52.048;6.092;2022-10-14T12:09:20;14.10;99.90
55812;DHT22;41742;52.048;6.092;2022-10-14T12:11:58;14.10;99.90
55812;DHT22;41742;52.048;6.092;2022-10-14T12:14:35;14.10;99.90
55812;DHT22;41742;52.048;6.092;2022-10-14T12:17:22;14.10;99.90
55812;DHT22;41742;52.048;6.092;2022-10-14T12:19:49;14.10;99.90
55812;DHT22;41742;52.048;6.092;2022-10-14T12:22:19;14.10;99.90
55812;DHT22;41742;52.048;6.092;2022-10-14T12:24:53;14.10;99.90
55812;DHT22;41742;52.048;6.092;2022-10-14T12:27:22;14.10;99.90
55812;DHT22;41742;52.048;6.092;2022-10-14T12:29:49;14.10;99.90
55812;DHT22;41742;52.048;6.092;2022-10-14T12:34:45;14.10;99.90
55812;DHT22;41742;52.048;6.092;2022-10-14T12:42:28;14.20;99.90
55812;DHT22;41742;52.048;6.092;2022-10-14T12:44:59;14.20;99.90
55812;DHT22;41742;52.048;6.092;2022-10-14T12:49:59;14.20;99.90
55812;DHT22;41742;52.048;6.092;2022-10-14T12:52:32;14.20;99.90
55812;DHT22;41742;52.048;6.092;2022-10-14T12:55:02;14.20;99.90
55812;DHT22;41742;52.048;6.092;2022-10-14T12:57:35;14.30;99.90
55812;DHT22;41742;52.048;6.092;2022-10-14T13:00:26;14.30;99.90
55812;DHT22;41742;52.048;6.092;2022-10-14T13:02:55;14.30;99.90
55812;DHT22;41742;52.048;6.092;2022-10-14T13:05:33;14.40;99.90
55812;DHT22;41742;52.048;6.092;2022-10-14T13:08:25;14.40;99.90
55812;DHT22;41742;52.048;6.092;2022-10-14T13:21:08;14.50;99.90
55812;DHT22;41742;52.048;6.092;2022-10-14T13:23:42;14.60;99.90
55812;DHT22;41742;52.048;6.092;2022-10-14T13:31:46;14.60;99.90
55812;DHT22;41742;52.048;6.092;2022-10-14T13:34:23;14.60;99.90
55812;DHT22;41742;52.048;6.092;2022-10-14T13:39:42;14.60;99.90
55812;DHT22;41742;52.048;6.092;2022-10-14T13:42:21;14.60;99.90
55812;DHT22;41742;52.048;6.092;2022-10-14T13:44:48;14.60;99.90
55812;DHT22;41742;52.048;6.092;2022-10-14T13:47:19;14.60;99.90
55812;DHT22;41742;52.048;6.092;2022-10-14T13:49:45;14.50;99.90
55812;DHT22;41742;52.048;6.092;2022-10-14T13:52:24;14.50;99.90
55812;DHT22;41742;52.048;6.092;2022-10-14T13:55:14;14.50;99.90
55812;DHT22;41742;52.048;6.092;2022-10-14T13:58:15;14.40;99.90
55812;DHT22;41742;52.048;6.092;2022-10-14T14:03:30;14.40;99.90
55812;DHT22;41742;52.048;6.092;2022-10-14T14:05:57;14.50;99.90
55812;DHT22;41742;52.048;6.092;2022-10-14T14:08:31;14.50;99.90
55812;DHT22;41742;52.048;6.092;2022-10-14T14:11:00;14.40;99.90
55812;DHT22;41742;52.048;6.092;2022-10-14T14:13:46;14.40;99.90
55812;DHT22;41742;52.048;6.092;2022-10-14T14:16:20;14.40;99.90
55812;DHT22;41742;52.048;6.092;2022-10-14T14:18:49;14.40;99.90
55812;DHT22;41742;52.048;6.092;2022-10-14T14:21:20;14.40;99.90
55812;DHT22;41742;52.048;6.092;2022-10-14T14:23:57;14.40;99.90
55812;DHT22;41742;52.048;6.092;2022-10-14T14:26:36;14.40;99.90
55812;DHT22;41742;52.048;6.092;2022-10-14T14:29:13;14.40;99.90
55812;DHT22;41742;52.048;6.092;2022-10-14T14:31:42;14.40;99.90
55812;DHT22;41742;52.048;6.092;2022-10-14T14:34:14;14.40;99.90
55812;DHT22;41742;52.048;6.092;2022-10-14T14:36:40;14.40;99.90
55812;DHT22;41742;52.048;6.092;2022-10-14T14:41:52;14.40;99.90
55812;DHT22;41742;52.048;6.092;2022-10-14T14:44:22;14.50;99.90
55812;DHT22;41742;52.048;6.092;2022-10-14T14:46:50;14.50;99.90
55812;DHT22;41742;52.048;6.092;2022-10-14T14:49:20;14.50;99.90
55812;DHT22;41742;52.048;6.092;2022-10-14T14:51:47;14.50;99.90
55812;DHT22;41742;52.048;6.092;2022-10-14T14:54:16;14.50;99.90
55812;DHT22;41742;52.048;6.092;2022-10-14T14:56:46;14.50;99.90
55812;DHT22;41742;52.048;6.092;2022-10-14T14:59:29;14.50;99.90
55812;DHT22;41742;52.048;6.092;2022-10-14T15:01:56;14.50;99.90
55812;DHT22;41742;52.048;6.092;2022-10-14T15:04:27;14.50;99.90
55812;DHT22;41742;52.048;6.092;2022-10-14T15:07:00;14.50;99.90
55812;DHT22;41742;52.048;6.092;2022-10-14T15:09:35;14.60;99.90
55812;DHT22;41742;52.048;6.092;2022-10-14T15:12:05;14.50;99.90
55812;DHT22;41742;52.048;6.092;2022-10-14T15:14:32;14.50;99.90
55812;DHT22;41742;52.048;6.092;2022-10-14T15:17:00;14.50;99.90
55812;DHT22;41742;52.048;6.092;2022-10-14T15:19:35;14.50;99.90
55812;DHT22;41742;52.048;6.092;2022-10-14T15:22:10;14.50;99.90
55812;DHT22;41742;52.048;6.092;2022-10-14T15:24:56;14.50;99.90
55812;DHT22;41742;52.048;6.092;2022-10-14T15:27:29;14.40;99.90
55812;DHT22;41742;52.048;6.092;2022-10-14T15:30:15;14.40;99.90
55812;DHT22;41742;52.048;6.092;2022-10-14T15:32:41;14.40;99.90
55812;DHT22;41742;52.048;6.092;2022-10-14T15:35:10;14.40;99.90
55812;DHT22;41742;52.048;6.092;2022-10-14T15:37:36;14.40;99.90
55812;DHT22;41742;52.048;6.092;2022-10-14T15:42:36;14.50;99.90
55812;DHT22;41742;52.048;6.092;2022-10-14T15:45:02;14.50;99.90
55812;DHT22;41742;52.048;6.092;2022-10-14T15:47:27;14.50;99.90
55812;DHT22;41742;52.048;6.092;2022-10-14T15:49:54;14.50;99.90
55812;DHT22;41742;52.048;6.092;2022-10-14T15:52:20;14.50;99.90
55812;DHT22;41742;52.048;6.092;2022-10-14T15:54:45;14.50;99.90
55812;DHT22;41742;52.048;6.092;2022-10-14T15:57:13;14.50;99.90
55812;DHT22;41742;52.048;6.092;2022-10-14T15:59:38;14.50;99.90
55812;DHT22;41742;52.048;6.092;2022-10-14T16:02:22;14.50;99.90
55812;DHT22;41742;52.048;6.092;2022-10-14T16:04:50;14.40;99.90
55812;DHT22;41742;52.048;6.092;2022-10-14T16:07:15;14.40;99.90
55812;DHT22;41742;52.048;6.092;2022-10-14T16:09:44;14.40;99.90
55812;DHT22;41742;52.048;6.092;2022-10-14T16:12:14;14.30;99.90
55812;DHT22;41742;52.048;6.092;2022-10-14T16:14:40;14.30;99.90
55812;DHT22;41742;52.048;6.092;2022-10-14T16:17:08;14.30;99.90
55812;DHT22;41742;52.048;6.092;2022-10-14T16:19:33;14.20;99.90
55812;DHT22;41742;52.048;6.092;2022-10-14T16:21:59;14.20;99.90
55812;DHT22;41742;52.048;6.092;2022-10-14T16:24:24;14.20;99.90
55812;DHT22;41742;52.048;6.092;2022-10-14T16:26:51;14.10;99.90
55812;DHT22;41742;52.048;6.092;2022-10-14T16:29:18;14.10;99.90
55812;DHT22;41742;52.048;6.092;2022-10-14T16:31:45;14.10;99.90
55812;DHT22;41742;52.048;6.092;2022-10-14T16:34:17;14.00;99.90
55812;DHT22;41742;52.048;6.092;2022-10-14T16:36:43;14.00;99.90
55812;DHT22;41742;52.048;6.092;2022-10-14T16:39:10;14.00;99.90
55812;DHT22;41742;52.048;6.092;2022-10-14T16:41:37;13.90;99.90
55812;DHT22;41742;52.048;6.092;2022-10-14T16:44:03;13.90;99.90
55812;DHT22;41742;52.048;6.092;2022-10-14T16:46:29;13.90;99.90
55812;DHT22;41742;52.048;6.092;2022-10-14T16:49:14;13.80;99.90
55812;DHT22;41742;52.048;6.092;2022-10-14T16:51:43;13.80;99.90
55812;DHT22;41742;52.048;6.092;2022-10-14T16:54:09;13.80;99.90
55812;DHT22;41742;52.048;6.092;2022-10-14T16:56:35;13.70;99.90
55812;DHT22;41742;52.048;6.092;2022-10-14T16:59:17;13.80;99.90
55812;DHT22;41742;52.048;6.092;2022-10-14T17:01:42;13.70;99.90
55812;DHT22;41742;52.048;6.092;2022-10-14T17:04:11;13.70;99.90
55812;DHT22;41742;52.048;6.092;2022-10-14T17:06:37;13.70;99.90
55812;DHT22;41742;52.048;6.092;2022-10-14T17:09:03;13.60;99.90
55812;DHT22;41742;52.048;6.092;2022-10-14T17:11:29;13.70;99.90
55812;DHT22;41742;52.048;6.092;2022-10-14T17:13:58;13.70;99.90
55812;DHT22;41742;52.048;6.092;2022-10-14T17:16:24;13.60;99.90
55812;DHT22;41742;52.048;6.092;2022-10-14T17:18:56;13.60;99.90
55812;DHT22;41742;52.048;6.092;2022-10-14T17:21:22;13.60;99.90
55812;DHT22;41742;52.048;6.092;2022-10-14T17:23:48;13.60;99.90
55812;DHT22;41742;52.048;6.092;2022-10-14T17:26:16;13.60;99.90
55812;DHT22;41742;52.048;6.092;2022-10-14T17:28:46;13.50;99.90
55812;DHT22;41742;52.048;6.092;2022-10-14T17:31:15;13.50;99.90
55812;DHT22;41742;52.048;6.092;2022-10-14T17:33:41;13.50;99.90
55812;DHT22;41742;52.048;6.092;2022-10-14T17:38:45;13.50;99.90
55812;DHT22;41742;52.048;6.092;2022-10-14T17:41:12;13.50;99.90
55812;DHT22;41742;52.048;6.092;2022-10-14T17:43:38;13.50;99.90